Time;durP1;ratioP1;P1;durP2;ratioP2;P2;SDS_P1;SDS_P2;PMS_P1;PMS_P2;Temp;Humidity;BMP_temperature;BMP_pressure;BME280_temperature;BME280_humidity;BME280_pressure;Samples;Min_cycle;Max_cycle;Signal;HPM_P1;HPM_P2
2022/03/19 00:01:49;;;;;;;3.97;2.50;;;;;;;;;;5073587;28;20235;-82
2022/03/19 00:04:18;;;;;;;2.35;2.15;;;;;;;;;;5074382;28;20691;-83
2022/03/19 00:06:48;;;;;;;2.13;2.00;;;;;;;;;;5074819;28;20197;-82
2022/03/19 00:09:16;;;;;;;2.20;2.00;;;;;;;;;;5074333;28;20576;-82
2022/03/19 00:11:43;;;;;;;2.72;2.40;;;;;;;;;;5073861;28;20217;-83
2022/03/19 00:14:12;;;;;;;3.25;2.40;;;;;;;;;;5074205;28;20229;-83
2022/03/19 00:16:39;;;;;;;3.53;2.58;;;;;;;;;;5073896;28;20208;-82
2022/03/19 00:19:08;;;;;;;2.60;2.30;;;;;;;;;;5073850;28;20274;-84
2022/03/19 00:21:37;;;;;;;3.05;2.78;;;;;;;;;;5074654;28;20201;-83
2022/03/19 00:24:08;;;;;;;2.58;2.20;;;;;;;;;;5074690;28;20644;-84
2022/03/19 00:26:36;;;;;;;3.22;2.65;;;;;;;;;;5075392;28;20247;-84
2022/03/19 00:29:03;;;;;;;3.17;2.88;;;;;;;;;;5075487;28;20201;-84
2022/03/19 00:31:31;;;;;;;3.45;2.30;;;;;;;;;;5074821;28;20203;-87
2022/03/19 00:33:59;;;;;;;3.15;2.90;;;;;;;;;;5075073;28;20856;-82
2022/03/19 00:36:26;;;;;;;2.53;2.10;;;;;;;;;;5075118;28;20201;-82
2022/03/19 00:38:55;;;;;;;6.07;3.47;;;;;;;;;;5074470;28;20232;-83
2022/03/19 00:41:23;;;;;;;5.03;2.65;;;;;;;;;;5077240;28;20196;-83
2022/03/19 00:43:50;;;;;;;4.97;2.22;;;;;;;;;;5078898;28;20204;-83
2022/03/19 00:46:19;;;;;;;3.60;2.50;;;;;;;;;;5078353;28;20204;-83
2022/03/19 00:48:46;;;;;;;4.43;2.20;;;;;;;;;;5078482;28;20224;-82
2022/03/19 00:51:13;;;;;;;2.78;2.40;;;;;;;;;;5078151;28;20689;-82
2022/03/19 00:53:41;;;;;;;5.13;3.00;;;;;;;;;;5077938;28;20226;-82
2022/03/19 00:56:10;;;;;;;3.83;3.53;;;;;;;;;;5077754;28;20216;-83
2022/03/19 00:58:37;;;;;;;2.85;2.30;;;;;;;;;;5078102;28;20241;-84
2022/03/19 01:01:05;;;;;;;2.90;2.13;;;;;;;;;;5078391;28;20201;-82
2022/03/19 01:03:32;;;;;;;3.05;2.72;;;;;;;;;;5078136;28;20227;-82
2022/03/19 01:05:59;;;;;;;5.07;2.90;;;;;;;;;;5078015;28;20573;-82
2022/03/19 01:08:27;;;;;;;3.92;2.70;;;;;;;;;;5078445;28;20232;-83
2022/03/19 01:10:54;;;;;;;2.95;2.67;;;;;;;;;;5078423;28;20205;-83
2022/03/19 01:13:23;;;;;;;4.53;3.22;;;;;;;;;;5078101;28;20647;-83
2022/03/19 01:15:51;;;;;;;3.40;2.83;;;;;;;;;;5078392;28;20689;-84
2022/03/19 01:18:18;;;;;;;2.20;2.00;;;;;;;;;;5077828;28;20217;-82
2022/03/19 01:20:46;;;;;;;2.97;2.53;;;;;;;;;;5078014;28;20614;-84
2022/03/19 01:23:13;;;;;;;2.65;2.42;;;;;;;;;;5078296;28;20224;-82
2022/03/19 01:25:40;;;;;;;2.90;2.60;;;;;;;;;;5077631;28;20212;-82
2022/03/19 01:28:08;;;;;;;2.97;2.67;;;;;;;;;;5077246;28;20255;-84
2022/03/19 01:30:36;;;;;;;3.17;2.50;;;;;;;;;;5076228;28;20201;-82
2022/03/19 01:33:04;;;;;;;2.50;2.30;;;;;;;;;;5076366;28;20273;-84
2022/03/19 01:35:31;;;;;;;2.85;2.45;;;;;;;;;;5076200;28;20680;-84
2022/03/19 01:37:59;;;;;;;3.10;2.88;;;;;;;;;;5077291;28;20209;-82
2022/03/19 01:40:27;;;;;;;4.45;3.05;;;;;;;;;;5077310;28;20212;-84
2022/03/19 01:42:54;;;;;;;2.55;2.33;;;;;;;;;;5077100;28;20570;-84
2022/03/19 01:45:24;;;;;;;2.53;2.30;;;;;;;;;;5076007;28;20695;-83
2022/03/19 01:47:54;;;;;;;4.38;2.60;;;;;;;;;;5077677;28;20216;-82
2022/03/19 01:50:24;;;;;;;3.05;2.40;;;;;;;;;;5077608;28;20197;-82
2022/03/19 01:52:51;;;;;;;4.13;2.45;;;;;;;;;;5075460;28;20266;-82
2022/03/19 01:55:28;;;;;;;2.55;2.30;;;;;;;;;;5075745;28;20205;-84
2022/03/19 01:57:56;;;;;;;2.88;2.67;;;;;;;;;;5076382;28;20692;-83
2022/03/19 02:00:25;;;;;;;2.95;2.58;;;;;;;;;;5076488;28;20201;-82
2022/03/19 02:02:55;;;;;;;3.50;2.88;;;;;;;;;;5076058;28;20220;-84
2022/03/19 02:05:25;;;;;;;4.88;3.22;;;;;;;;;;5076178;28;20231;-84
2022/03/19 02:07:53;;;;;;;3.25;2.47;;;;;;;;;;5075953;28;20677;-82
2022/03/19 02:10:22;;;;;;;2.67;2.47;;;;;;;;;;5076300;28;20212;-84
2022/03/19 02:12:52;;;;;;;5.15;3.13;;;;;;;;;;5075628;28;20227;-83
2022/03/19 02:15:20;;;;;;;2.50;2.30;;;;;;;;;;5075924;28;20212;-83
2022/03/19 02:17:47;;;;;;;2.40;2.08;;;;;;;;;;5075986;28;20212;-83
2022/03/19 02:20:16;;;;;;;2.33;2.13;;;;;;;;;;5075425;28;20229;-84
2022/03/19 02:25:34;;;;;;;2.58;2.10;;;;;;;;;;5076442;28;20278;-82
2022/03/19 02:25:35;;;;;;;3.97;2.53;;;;;;;;;;5075441;28;20276;-84
2022/03/19 02:28:02;;;;;;;2.13;2.00;;;;;;;;;;5075607;28;20220;-83
2022/03/19 02:30:29;;;;;;;2.78;2.58;;;;;;;;;;5075002;28;20205;-82
2022/03/19 02:32:57;;;;;;;4.63;2.38;;;;;;;;;;5074680;28;20228;-82
2022/03/19 02:35:24;;;;;;;2.97;2.65;;;;;;;;;;5075089;28;20261;-82
2022/03/19 02:37:52;;;;;;;4.07;2.42;;;;;;;;;;5075896;28;20204;-84
2022/03/19 02:40:21;;;;;;;3.92;3.00;;;;;;;;;;5075140;28;20705;-83
2022/03/19 02:42:52;;;;;;;3.10;2.60;;;;;;;;;;5075338;28;20253;-82
2022/03/19 02:45:21;;;;;;;2.65;2.10;;;;;;;;;;5075441;28;20177;-83
2022/03/19 02:47:58;;;;;;;3.05;2.17;;;;;;;;;;5076032;28;20213;-82
2022/03/19 02:50:27;;;;;;;3.50;2.58;;;;;;;;;;5075159;28;20181;-82
2022/03/19 02:52:55;;;;;;;3.95;2.83;;;;;;;;;;5075447;28;20221;-83
2022/03/19 02:55:23;;;;;;;2.65;1.98;;;;;;;;;;5074977;28;20189;-82
2022/03/19 02:57:58;;;;;;;3.88;2.65;;;;;;;;;;5075213;28;20572;-82
2022/03/19 03:00:26;;;;;;;3.38;3.08;;;;;;;;;;5074347;28;20224;-83
2022/03/19 03:02:53;;;;;;;2.08;1.95;;;;;;;;;;5075085;28;20254;-82
2022/03/19 03:05:21;;;;;;;2.15;1.95;;;;;;;;;;5073996;28;20212;-83
2022/03/19 03:07:48;;;;;;;3.28;2.17;;;;;;;;;;5074537;28;20696;-82
2022/03/19 03:10:17;;;;;;;4.70;2.58;;;;;;;;;;5074743;28;20205;-82
2022/03/19 03:12:44;;;;;;;3.67;2.60;;;;;;;;;;5074547;28;20598;-83
2022/03/19 03:15:13;;;;;;;2.35;2.15;;;;;;;;;;5074495;28;20204;-82
2022/03/19 03:17:40;;;;;;;3.53;2.47;;;;;;;;;;5074114;28;20617;-83
2022/03/19 03:20:09;;;;;;;4.30;3.03;;;;;;;;;;5074569;28;20220;-83
2022/03/19 03:22:37;;;;;;;4.35;3.33;;;;;;;;;;5074753;28;20685;-84
2022/03/19 03:25:06;;;;;;;5.28;3.10;;;;;;;;;;5074867;28;20197;-82
2022/03/19 03:27:34;;;;;;;2.60;2.10;;;;;;;;;;5074660;28;20204;-83
2022/03/19 03:30:01;;;;;;;3.15;2.50;;;;;;;;;;5073497;28;20239;-82
2022/03/19 03:32:30;;;;;;;3.20;2.88;;;;;;;;;;5073060;28;20229;-82
2022/03/19 03:34:57;;;;;;;3.53;2.42;;;;;;;;;;5073956;28;20250;-82
2022/03/19 03:37:24;;;;;;;2.60;2.40;;;;;;;;;;5073871;28;20208;-82
2022/03/19 03:39:51;;;;;;;2.97;2.55;;;;;;;;;;5074919;28;20227;-82
2022/03/19 03:42:19;;;;;;;2.65;2.22;;;;;;;;;;5074057;28;20286;-83
2022/03/19 03:44:46;;;;;;;3.67;2.30;;;;;;;;;;5073798;28;20200;-82
2022/03/19 03:47:13;;;;;;;5.38;2.67;;;;;;;;;;5073992;28;20258;-82
2022/03/19 03:49:42;;;;;;;2.90;2.08;;;;;;;;;;5074001;28;20211;-82
2022/03/19 03:52:09;;;;;;;3.28;2.78;;;;;;;;;;5073165;28;20224;-82
2022/03/19 03:54:36;;;;;;;3.78;2.67;;;;;;;;;;5073653;28;20192;-82
2022/03/19 03:57:04;;;;;;;3.58;2.90;;;;;;;;;;5073648;28;20246;-82
2022/03/19 03:59:31;;;;;;;3.15;2.30;;;;;;;;;;5073199;28;20266;-82
2022/03/19 04:01:59;;;;;;;3.88;2.35;;;;;;;;;;5073067;28;20227;-81
2022/03/19 04:04:26;;;;;;;5.35;2.97;;;;;;;;;;5073347;28;20197;-82
2022/03/19 04:06:55;;;;;;;4.13;3.30;;;;;;;;;;5074036;28;20205;-84
2022/03/19 04:09:22;;;;;;;3.22;2.50;;;;;;;;;;5073627;28;20197;-82
2022/03/19 04:11:50;;;;;;;3.53;2.83;;;;;;;;;;5073154;28;20224;-84
2022/03/19 04:14:17;;;;;;;6.15;2.92;;;;;;;;;;5072571;28;20692;-82
2022/03/19 04:16:44;;;;;;;5.35;3.10;;;;;;;;;;5072711;28;20205;-82
2022/03/19 04:19:12;;;;;;;2.92;2.53;;;;;;;;;;5073425;28;20212;-82
2022/03/19 04:21:39;;;;;;;5.07;3.30;;;;;;;;;;5073419;28;20221;-82
2022/03/19 04:24:08;;;;;;;4.82;3.42;;;;;;;;;;5073286;28;20204;-83
2022/03/19 04:26:35;;;;;;;3.67;3.20;;;;;;;;;;5074970;28;20204;-82
2022/03/19 04:29:03;;;;;;;3.97;3.17;;;;;;;;;;5076851;28;20201;-82
2022/03/19 04:31:30;;;;;;;3.45;3.15;;;;;;;;;;5072632;28;20220;-83
2022/03/19 04:33:57;;;;;;;2.30;2.10;;;;;;;;;;5072155;28;20660;-82
2022/03/19 04:36:29;;;;;;;2.70;2.50;;;;;;;;;;5073721;28;20197;-82
2022/03/19 04:38:57;;;;;;;3.28;2.88;;;;;;;;;;5073834;28;20571;-82
2022/03/19 04:41:25;;;;;;;3.03;2.42;;;;;;;;;;5073312;28;20217;-83
2022/03/19 04:43:53;;;;;;;5.00;3.35;;;;;;;;;;5072663;28;20258;-83
2022/03/19 04:46:20;;;;;;;4.25;3.70;;;;;;;;;;5073469;28;20664;-83
2022/03/19 04:48:49;;;;;;;7.47;3.22;;;;;;;;;;5073718;28;20209;-82
2022/03/19 04:51:19;;;;;;;3.45;2.92;;;;;;;;;;5073943;28;20197;-82
2022/03/19 04:53:50;;;;;;;2.75;2.55;;;;;;;;;;5072696;28;20221;-82
2022/03/19 04:56:27;;;;;;;2.33;2.08;;;;;;;;;;5073563;28;20197;-82
2022/03/19 04:58:56;;;;;;;3.15;2.75;;;;;;;;;;5073592;28;20219;-83
2022/03/19 05:01:25;;;;;;;4.68;2.85;;;;;;;;;;5073452;28;20221;-82
2022/03/19 05:03:53;;;;;;;6.40;4.53;;;;;;;;;;5073136;28;20205;-83
2022/03/19 05:06:21;;;;;;;3.97;3.30;;;;;;;;;;5073657;28;20207;-82
2022/03/19 05:11:12;;;;;;;6.55;4.78;;;;;;;;;;5073393;28;20638;-82
2022/03/19 05:11:35;;;;;;;3.10;2.60;;;;;;;;;;5072554;28;20201;-82
2022/03/19 05:14:03;;;;;;;4.75;3.50;;;;;;;;;;5072909;28;20712;-83
2022/03/19 05:16:31;;;;;;;3.28;2.97;;;;;;;;;;5073105;28;20234;-83
2022/03/19 05:19:06;;;;;;;4.70;3.47;;;;;;;;;;5072735;28;20204;-84
2022/03/19 05:21:34;;;;;;;3.15;2.85;;;;;;;;;;5072622;28;20217;-82
2022/03/19 05:24:08;;;;;;;5.25;4.10;;;;;;;;;;5072934;28;20201;-83
2022/03/19 05:26:38;;;;;;;6.88;3.13;;;;;;;;;;5074375;28;20538;-82
2022/03/19 05:29:05;;;;;;;4.57;3.15;;;;;;;;;;5076360;28;20547;-83
2022/03/19 05:31:33;;;;;;;4.95;3.45;;;;;;;;;;5077339;28;20662;-82
2022/03/19 05:36:45;;;;;;;3.72;3.22;;;;;;;;;;5076503;28;20604;-82
2022/03/19 05:39:13;;;;;;;3.20;2.90;;;;;;;;;;5076750;28;20222;-84
2022/03/19 05:41:41;;;;;;;4.03;2.80;;;;;;;;;;5075541;28;20220;-86
2022/03/19 05:44:09;;;;;;;3.78;3.10;;;;;;;;;;5075841;28;20201;-83
2022/03/19 05:46:36;;;;;;;3.38;3.05;;;;;;;;;;5075688;28;20216;-78
2022/03/19 05:49:03;;;;;;;4.28;3.03;;;;;;;;;;5074643;28;20201;-78
2022/03/19 05:51:30;;;;;;;4.47;3.58;;;;;;;;;;5074584;28;20668;-78
2022/03/19 05:53:58;;;;;;;3.47;3.17;;;;;;;;;;5074546;28;20618;-78
2022/03/19 05:56:25;;;;;;;4.40;3.97;;;;;;;;;;5075545;28;20205;-78
2022/03/19 05:58:55;;;;;;;3.72;3.00;;;;;;;;;;5074720;28;20236;-78
2022/03/19 06:01:26;;;;;;;6.25;3.70;;;;;;;;;;5074488;28;20221;-77
2022/03/19 06:03:53;;;;;;;3.58;3.20;;;;;;;;;;5074706;28;20227;-78
2022/03/19 06:06:20;;;;;;;3.13;2.83;;;;;;;;;;5074438;28;20615;-78
2022/03/19 06:08:48;;;;;;;3.35;2.85;;;;;;;;;;5074447;28;20205;-78
2022/03/19 06:11:15;;;;;;;3.17;2.88;;;;;;;;;;5074859;28;20197;-78
2022/03/19 06:13:43;;;;;;;5.40;3.88;;;;;;;;;;5074236;28;20368;-78
2022/03/19 06:16:11;;;;;;;3.03;2.83;;;;;;;;;;5074826;28;20205;-77
2022/03/19 06:18:39;;;;;;;5.80;4.57;;;;;;;;;;5074702;28;20201;-78
2022/03/19 06:21:07;;;;;;;9.13;4.32;;;;;;;;;;5074277;28;20738;-78
2022/03/19 06:23:34;;;;;;;4.45;3.00;;;;;;;;;;5074387;28;20221;-78
2022/03/19 06:26:01;;;;;;;5.22;3.78;;;;;;;;;;5074557;28;20211;-78
2022/03/19 06:28:28;;;;;;;4.82;3.88;;;;;;;;;;5074019;28;20338;-78
2022/03/19 06:30:55;;;;;;;5.38;4.25;;;;;;;;;;5073959;28;20200;-78
2022/03/19 06:33:24;;;;;;;3.25;2.95;;;;;;;;;;5073369;28;20236;-78
2022/03/19 06:38:36;;;;;;;6.47;4.35;;;;;;;;;;5073571;28;20322;-77
2022/03/19 06:41:04;;;;;;;4.18;3.17;;;;;;;;;;5073932;28;20604;-78
2022/03/19 06:43:32;;;;;;;3.15;2.92;;;;;;;;;;5073765;28;20647;-78
2022/03/19 06:46:00;;;;;;;4.47;4.07;;;;;;;;;;5074319;28;20270;-78
2022/03/19 06:48:28;;;;;;;4.80;3.80;;;;;;;;;;5073958;28;20250;-79
2022/03/19 06:50:56;;;;;;;3.15;2.85;;;;;;;;;;5073648;28;20197;-79
2022/03/19 06:53:24;;;;;;;3.85;3.53;;;;;;;;;;5073854;28;20315;-78
2022/03/19 06:55:52;;;;;;;3.72;3.05;;;;;;;;;;5073714;28;20204;-78
2022/03/19 06:58:20;;;;;;;5.55;3.15;;;;;;;;;;5073978;28;20205;-78
2022/03/19 07:00:48;;;;;;;4.53;3.70;;;;;;;;;;5073886;28;20216;-79
2022/03/19 07:03:15;;;;;;;5.28;3.40;;;;;;;;;;5073547;28;20225;-78
2022/03/19 07:05:44;;;;;;;3.13;2.47;;;;;;;;;;5071811;28;20205;-78
2022/03/19 07:08:11;;;;;;;3.90;2.45;;;;;;;;;;5079696;28;20225;-79
2022/03/19 07:10:39;;;;;;;3.65;3.10;;;;;;;;;;5073479;28;20330;-79
2022/03/19 07:13:06;;;;;;;3.30;3.00;;;;;;;;;;5073061;28;20229;-79
2022/03/19 07:15:34;;;;;;;2.67;2.45;;;;;;;;;;5072715;28;20636;-78
2022/03/19 07:18:02;;;;;;;5.88;3.17;;;;;;;;;;5073334;28;20201;-79
2022/03/19 07:20:30;;;;;;;5.63;3.05;;;;;;;;;;5073161;28;20205;-79
2022/03/19 07:23:01;;;;;;;3.45;2.83;;;;;;;;;;5072968;28;20316;-79
2022/03/19 07:25:31;;;;;;;4.15;2.78;;;;;;;;;;5073199;28;20209;-78
2022/03/19 07:28:01;;;;;;;4.15;2.60;;;;;;;;;;5072857;28;20738;-79
2022/03/19 07:30:28;;;;;;;2.95;2.13;;;;;;;;;;5072915;28;20204;-79
2022/03/19 07:32:56;;;;;;;3.30;2.60;;;;;;;;;;5072018;28;20233;-80
2022/03/19 07:35:23;;;;;;;4.93;3.15;;;;;;;;;;5072602;28;20211;-79
2022/03/19 07:37:51;;;;;;;3.97;3.05;;;;;;;;;;5072689;28;20677;-80
2022/03/19 07:43:04;;;;;;;3.85;2.65;;;;;;;;;;5071544;28;20236;-79
2022/03/19 07:45:32;;;;;;;3.88;2.20;;;;;;;;;;5072977;28;20212;-80
2022/03/19 07:47:59;;;;;;;3.25;2.45;;;;;;;;;;5072759;28;20201;-79
2022/03/19 07:50:27;;;;;;;3.80;3.30;;;;;;;;;;5072079;28;20208;-81
2022/03/19 07:52:54;;;;;;;3.28;2.95;;;;;;;;;;5072339;28;20466;-79
2022/03/19 07:55:24;;;;;;;3.78;2.88;;;;;;;;;;5084869;28;20208;-79
2022/03/19 07:57:51;;;;;;;4.07;2.58;;;;;;;;;;5089172;28;20201;-79
2022/03/19 08:00:18;;;;;;;4.72;3.55;;;;;;;;;;5089455;28;20216;-79
2022/03/19 08:02:46;;;;;;;4.00;3.28;;;;;;;;;;5088053;28;20282;-79
2022/03/19 08:05:14;;;;;;;4.88;3.65;;;;;;;;;;5088506;28;20205;-78
2022/03/19 08:07:42;;;;;;;5.25;2.95;;;;;;;;;;5077791;28;20201;-80
2022/03/19 08:10:11;;;;;;;3.13;2.83;;;;;;;;;;5075111;28;20615;-79
2022/03/19 08:12:42;;;;;;;3.83;2.53;;;;;;;;;;5075874;28;20217;-80
2022/03/19 08:15:12;;;;;;;4.80;2.40;;;;;;;;;;5074086;28;20208;-80
2022/03/19 08:17:41;;;;;;;5.45;3.20;;;;;;;;;;5074893;28;20205;-80
2022/03/19 08:20:10;;;;;;;4.63;2.50;;;;;;;;;;5068912;28;20205;-79
2022/03/19 08:22:38;;;;;;;3.75;2.25;;;;;;;;;;5072076;28;20232;-81
2022/03/19 08:25:07;;;;;;;7.10;3.20;;;;;;;;;;5090199;28;20209;-78
2022/03/19 08:27:35;;;;;;;3.78;2.47;;;;;;;;;;5086545;28;20274;-79
2022/03/19 08:30:05;;;;;;;2.30;2.00;;;;;;;;;;5084654;28;20208;-78
2022/03/19 08:32:32;;;;;;;2.92;2.28;;;;;;;;;;5084567;28;20232;-80
2022/03/19 08:35:00;;;;;;;3.78;2.10;;;;;;;;;;5075237;28;20250;-80
2022/03/19 08:37:27;;;;;;;3.22;2.20;;;;;;;;;;5075376;28;20209;-79
2022/03/19 08:42:40;;;;;;;3.03;1.90;;;;;;;;;;5076414;28;20770;-80
2022/03/19 08:45:10;;;;;;;2.60;1.73;;;;;;;;;;5075902;28;20204;-79
2022/03/19 08:47:37;;;;;;;1.80;1.45;;;;;;;;;;5077814;28;20212;-80
2022/03/19 08:50:06;;;;;;;2.22;1.70;;;;;;;;;;5077351;28;20201;-80
2022/03/19 08:52:33;;;;;;;2.10;1.33;;;;;;;;;;5077987;28;20228;-81
2022/03/19 08:55:03;;;;;;;2.30;1.83;;;;;;;;;;5077349;28;20201;-81
2022/03/19 08:57:31;;;;;;;3.15;1.80;;;;;;;;;;5076143;28;20205;-80
2022/03/19 08:59:58;;;;;;;4.35;1.92;;;;;;;;;;5074442;28;20676;-81
2022/03/19 09:02:27;;;;;;;2.60;1.58;;;;;;;;;;5076357;28;20229;-81
2022/03/19 09:04:54;;;;;;;2.17;1.70;;;;;;;;;;5078224;28;20201;-81
2022/03/19 09:07:21;;;;;;;1.83;1.35;;;;;;;;;;5078839;28;20645;-81
2022/03/19 09:09:52;;;;;;;3.03;1.95;;;;;;;;;;5079207;28;20205;-81
2022/03/19 09:12:23;;;;;;;3.33;1.60;;;;;;;;;;5078800;28;20232;-80
2022/03/19 09:14:50;;;;;;;2.50;1.30;;;;;;;;;;5079158;28;20213;-80
2022/03/19 09:17:18;;;;;;;3.42;1.80;;;;;;;;;;5078047;28;20258;-81
2022/03/19 09:19:46;;;;;;;1.65;1.45;;;;;;;;;;5079292;28;20205;-81
2022/03/19 09:22:14;;;;;;;1.73;1.50;;;;;;;;;;5080614;28;20225;-82
2022/03/19 09:24:41;;;;;;;1.60;1.50;;;;;;;;;;5080992;28;20229;-82
2022/03/19 09:27:09;;;;;;;1.40;1.20;;;;;;;;;;5083453;28;20227;-81
2022/03/19 09:29:36;;;;;;;4.25;1.90;;;;;;;;;;5079653;28;20209;-81
2022/03/19 09:32:04;;;;;;;3.63;2.47;;;;;;;;;;5076982;28;20778;-82
2022/03/19 09:34:31;;;;;;;2.97;1.65;;;;;;;;;;5080224;28;20200;-81
2022/03/19 09:37:00;;;;;;;1.83;1.40;;;;;;;;;;5085775;28;20208;-81
2022/03/19 09:39:27;;;;;;;1.40;1.30;;;;;;;;;;5078031;28;20250;-81
2022/03/19 09:41:55;;;;;;;1.63;1.50;;;;;;;;;;5077868;28;20228;-81
2022/03/19 09:44:26;;;;;;;4.32;1.98;;;;;;;;;;5079800;28;20869;-81
2022/03/19 09:46:53;;;;;;;3.05;1.45;;;;;;;;;;5080411;28;20236;-81
2022/03/19 09:49:21;;;;;;;1.67;1.23;;;;;;;;;;5081731;28;20232;-82
2022/03/19 09:51:54;;;;;;;3.10;1.70;;;;;;;;;;5080308;28;20768;-82
2022/03/19 09:54:23;;;;;;;2.10;1.20;;;;;;;;;;5077741;28;20204;-83
2022/03/19 09:56:52;;;;;;;1.58;1.27;;;;;;;;;;5082086;28;20279;-84
2022/03/19 09:59:22;;;;;;;2.40;1.42;;;;;;;;;;5079503;28;20238;-83
2022/03/19 10:01:51;;;;;;;2.90;1.48;;;;;;;;;;5079008;28;20225;-82
2022/03/19 10:04:20;;;;;;;2.88;1.58;;;;;;;;;;5077089;28;20225;-84
2022/03/19 10:09:43;;;;;;;2.30;1.23;;;;;;;;;;5071769;28;20200;-82
2022/03/19 10:12:17;;;;;;;2.20;1.55;;;;;;;;;;5075439;28;20725;-82
2022/03/19 10:14:48;;;;;;;2.20;1.25;;;;;;;;;;5074793;28;20687;-82
2022/03/19 10:17:30;;;;;;;1.45;1.00;;;;;;;;;;5076526;28;20205;-82
2022/03/19 10:20:04;;;;;;;3.10;1.48;;;;;;;;;;5070357;28;20212;-82
2022/03/19 10:22:32;;;;;;;1.85;1.27;;;;;;;;;;5075893;28;20228;-83
2022/03/19 10:25:05;;;;;;;2.30;1.40;;;;;;;;;;5075765;28;20224;-82
2022/03/19 10:27:34;;;;;;;3.85;2.50;;;;;;;;;;5075806;28;20631;-82
2022/03/19 10:30:15;;;;;;;5.18;1.50;;;;;;;;;;5075723;28;20668;-83
2022/03/19 10:32:44;;;;;;;2.45;1.58;;;;;;;;;;5074809;28;20255;-82
2022/03/19 10:35:29;;;;;;;1.20;1.10;;;;;;;;;;5076417;28;20205;-82
2022/03/19 10:37:58;;;;;;;1.17;1.08;;;;;;;;;;5076283;28;20212;-82
2022/03/19 10:40:39;;;;;;;2.20;1.40;;;;;;;;;;5076840;28;20207;-83
2022/03/19 10:43:08;;;;;;;2.10;1.92;;;;;;;;;;5076288;28;20225;-83
2022/03/19 10:45:41;;;;;;;1.88;1.73;;;;;;;;;;5075629;28;20204;-82
2022/03/19 10:48:09;;;;;;;2.63;1.67;;;;;;;;;;5075109;28;20209;-83
2022/03/19 10:50:40;;;;;;;2.60;1.50;;;;;;;;;;5074942;28;20205;-82
2022/03/19 10:53:08;;;;;;;2.60;2.00;;;;;;;;;;5075049;28;20719;-83
2022/03/19 10:55:37;;;;;;;1.83;1.20;;;;;;;;;;5077676;28;20196;-83
2022/03/19 10:58:05;;;;;;;1.40;1.15;;;;;;;;;;5074710;28;20204;-81
2022/03/19 11:00:35;;;;;;;1.98;1.58;;;;;;;;;;5074951;28;20227;-82
2022/03/19 11:03:12;;;;;;;1.63;1.15;;;;;;;;;;5074612;28;20228;-83
2022/03/19 11:05:40;;;;;;;1.42;1.20;;;;;;;;;;5074033;28;20228;-83
2022/03/19 11:08:08;;;;;;;1.52;1.20;;;;;;;;;;5074021;28;20212;-83
2022/03/19 11:10:38;;;;;;;2.30;1.45;;;;;;;;;;5075191;28;20204;-82
2022/03/19 11:13:06;;;;;;;1.95;1.25;;;;;;;;;;5073565;28;20225;-82
2022/03/19 11:15:35;;;;;;;0.90;0.82;;;;;;;;;;5074333;28;20247;-82
2022/03/19 11:18:06;;;;;;;0.90;0.82;;;;;;;;;;5074575;28;20212;-83
2022/03/19 11:20:35;;;;;;;1.35;0.98;;;;;;;;;;5074630;28;20291;-83
2022/03/19 11:23:04;;;;;;;1.65;1.00;;;;;;;;;;5073861;28;20225;-83
2022/03/19 11:25:40;;;;;;;1.02;1.00;;;;;;;;;;5073803;28;20268;-82
2022/03/19 11:28:10;;;;;;;2.17;1.15;;;;;;;;;;5074535;28;20754;-82
2022/03/19 11:30:42;;;;;;;1.65;0.90;;;;;;;;;;5074012;28;20227;-83
2022/03/19 11:33:18;;;;;;;1.25;1.20;;;;;;;;;;5072915;28;20286;-81
2022/03/19 11:35:47;;;;;;;5.47;1.38;;;;;;;;;;5069322;28;20200;-82
2022/03/19 11:38:16;;;;;;;2.00;0.95;;;;;;;;;;5073422;28;20201;-82
2022/03/19 11:40:47;;;;;;;1.20;1.08;;;;;;;;;;5072897;28;20212;-82
2022/03/19 11:43:19;;;;;;;2.65;1.25;;;;;;;;;;5076029;28;20229;-82
2022/03/19 11:45:55;;;;;;;2.30;1.48;;;;;;;;;;5073727;28;20278;-82
2022/03/19 11:48:47;;;;;;;2.83;1.60;;;;;;;;;;5073613;28;20669;-82
2022/03/19 11:51:19;;;;;;;1.23;1.13;;;;;;;;;;5073166;28;20208;-80
2022/03/19 11:53:55;;;;;;;1.00;0.90;;;;;;;;;;5072578;28;20598;-82
2022/03/19 11:56:26;;;;;;;1.83;1.10;;;;;;;;;;5075365;28;20212;-82
2022/03/19 11:58:54;;;;;;;0.95;0.90;;;;;;;;;;5075277;28;20605;-83
2022/03/19 12:01:49;;;;;;;1.27;1.20;;;;;;;;;;5073882;28;20216;-82
2022/03/19 12:04:17;;;;;;;2.80;1.05;;;;;;;;;;5073631;28;20228;-82
2022/03/19 12:06:52;;;;;;;1.60;1.08;;;;;;;;;;5073389;28;20212;-82
2022/03/19 12:09:20;;;;;;;1.83;1.70;;;;;;;;;;5074286;28;20238;-82
2022/03/19 12:12:23;;;;;;;1.25;0.95;;;;;;;;;;5072946;28;20289;-81
2022/03/19 12:14:50;;;;;;;2.03;1.15;;;;;;;;;;5072584;28;20687;-82
2022/03/19 12:17:20;;;;;;;0.88;0.88;;;;;;;;;;5072719;28;20653;-82
2022/03/19 12:19:54;;;;;;;2.58;1.08;;;;;;;;;;5072850;28;20212;-82
2022/03/19 12:22:30;;;;;;;1.55;1.23;;;;;;;;;;5066678;28;20228;-82
2022/03/19 12:25:09;;;;;;;3.55;1.25;;;;;;;;;;5072835;28;20270;-82
2022/03/19 12:27:39;;;;;;;2.10;1.45;;;;;;;;;;5073142;28;20204;-82
2022/03/19 12:30:09;;;;;;;1.17;1.02;;;;;;;;;;5073153;28;20594;-81
2022/03/19 12:32:49;;;;;;;4.25;1.33;;;;;;;;;;5072298;28;20236;-82
2022/03/19 12:35:18;;;;;;;1.33;0.98;;;;;;;;;;5072394;28;20281;-81
2022/03/19 12:37:50;;;;;;;1.38;1.13;;;;;;;;;;5075069;28;20204;-80
2022/03/19 12:40:22;;;;;;;1.08;1.00;;;;;;;;;;5076881;28;20216;-81
2022/03/19 12:42:59;;;;;;;2.03;1.13;;;;;;;;;;5070670;28;20229;-81
2022/03/19 12:45:39;;;;;;;1.33;1.00;;;;;;;;;;5076028;28;20695;-81
2022/03/19 12:48:14;;;;;;;2.20;1.88;;;;;;;;;;5076412;28;20232;-81
2022/03/19 12:50:49;;;;;;;2.60;1.48;;;;;;;;;;5077192;28;20218;-81
2022/03/19 12:53:16;;;;;;;1.40;1.15;;;;;;;;;;5077168;28;20244;-81
2022/03/19 12:55:43;;;;;;;2.17;1.17;;;;;;;;;;5078061;28;20196;-82
2022/03/19 12:58:12;;;;;;;2.38;1.20;;;;;;;;;;5077337;28;20669;-81
2022/03/19 13:00:39;;;;;;;2.50;1.30;;;;;;;;;;5076811;28;20215;-81
2022/03/19 13:03:06;;;;;;;0.90;0.90;;;;;;;;;;5076862;28;20224;-81
2022/03/19 13:05:34;;;;;;;1.33;0.90;;;;;;;;;;5078288;28;20274;-81
2022/03/19 13:08:03;;;;;;;0.77;0.70;;;;;;;;;;5077788;28;20209;-81
2022/03/19 13:10:31;;;;;;;1.23;1.23;;;;;;;;;;5077288;28;20737;-81
2022/03/19 13:13:05;;;;;;;1.10;1.00;;;;;;;;;;5077163;28;20228;-81
2022/03/19 13:15:34;;;;;;;1.95;1.23;;;;;;;;;;5078096;28;20209;-82
2022/03/19 13:18:02;;;;;;;1.30;1.20;;;;;;;;;;5077506;28;20212;-82
2022/03/19 13:20:29;;;;;;;0.90;0.90;;;;;;;;;;5077653;28;20216;-81
2022/03/19 13:23:02;;;;;;;1.10;1.00;;;;;;;;;;5076041;28;20257;-81
2022/03/19 13:25:31;;;;;;;1.58;1.10;;;;;;;;;;5070446;28;20695;-81
2022/03/19 13:28:04;;;;;;;0.95;0.90;;;;;;;;;;5070513;28;20205;-81
2022/03/19 13:30:33;;;;;;;2.03;1.73;;;;;;;;;;5076997;28;20596;-81
2022/03/19 13:33:00;;;;;;;1.17;1.05;;;;;;;;;;5076661;28;20240;-82
2022/03/19 13:35:48;;;;;;;2.33;2.13;;;;;;;;;;5077414;28;20673;-81
2022/03/19 13:38:17;;;;;;;1.95;1.08;;;;;;;;;;5077049;28;20288;-81
2022/03/19 13:40:45;;;;;;;0.90;0.90;;;;;;;;;;5079385;28;20205;-80
2022/03/19 13:43:13;;;;;;;0.93;0.93;;;;;;;;;;5079355;28;20224;-81
2022/03/19 13:45:42;;;;;;;1.25;0.75;;;;;;;;;;5078438;28;20216;-82
2022/03/19 13:48:10;;;;;;;1.27;1.02;;;;;;;;;;5077653;28;20255;-83
2022/03/19 13:50:41;;;;;;;2.60;1.63;;;;;;;;;;5078083;28;20201;-82
2022/03/19 13:53:09;;;;;;;2.40;0.90;;;;;;;;;;5082205;28;20229;-81
2022/03/19 13:55:42;;;;;;;3.67;1.33;;;;;;;;;;5077966;28;20208;-83
2022/03/19 13:58:11;;;;;;;1.83;1.17;;;;;;;;;;5079541;28;20212;-80
2022/03/19 14:00:42;;;;;;;2.42;1.25;;;;;;;;;;5077898;28;20201;-82
2022/03/19 14:03:12;;;;;;;1.38;1.20;;;;;;;;;;5077509;28;20221;-82
2022/03/19 14:05:41;;;;;;;3.63;1.70;;;;;;;;;;5076256;28;20221;-81
2022/03/19 14:08:11;;;;;;;1.13;0.70;;;;;;;;;;5071425;28;20209;-81
2022/03/19 14:10:40;;;;;;;4.32;1.33;;;;;;;;;;5070325;28;20243;-81
2022/03/19 14:13:09;;;;;;;1.92;1.27;;;;;;;;;;5069923;28;20693;-79
2022/03/19 14:15:41;;;;;;;1.45;1.35;;;;;;;;;;5075158;28;20205;-81
2022/03/19 14:18:12;;;;;;;1.98;1.67;;;;;;;;;;5075904;28;20212;-81
2022/03/19 14:20:39;;;;;;;3.00;1.30;;;;;;;;;;5077972;28;20212;-81
2022/03/19 14:23:06;;;;;;;1.20;1.10;;;;;;;;;;5075085;28;20225;-81
2022/03/19 14:25:35;;;;;;;4.22;1.92;;;;;;;;;;5074189;28;20215;-80
2022/03/19 14:28:08;;;;;;;2.13;1.52;;;;;;;;;;5075867;28;20197;-81
2022/03/19 14:30:35;;;;;;;2.25;1.40;;;;;;;;;;5076029;28;20201;-80
2022/03/19 14:33:05;;;;;;;1.35;1.20;;;;;;;;;;5075390;28;20221;-81
2022/03/19 14:35:47;;;;;;;1.50;1.25;;;;;;;;;;5074626;28;20209;-81
2022/03/19 14:38:17;;;;;;;2.08;1.40;;;;;;;;;;5075375;28;20291;-81
2022/03/19 14:40:45;;;;;;;1.63;1.35;;;;;;;;;;5075079;28;20680;-80
2022/03/19 14:43:15;;;;;;;0.98;0.93;;;;;;;;;;5075163;28;20281;-80
2022/03/19 14:45:44;;;;;;;1.70;1.13;;;;;;;;;;5076668;28;20276;-80
2022/03/19 14:48:13;;;;;;;2.53;1.55;;;;;;;;;;5076496;28;20205;-80
2022/03/19 14:50:40;;;;;;;1.30;1.08;;;;;;;;;;5075462;28;20625;-81
2022/03/19 14:53:08;;;;;;;1.75;1.23;;;;;;;;;;5076492;28;20602;-81
2022/03/19 14:55:35;;;;;;;1.45;1.30;;;;;;;;;;5080429;28;20200;-81
2022/03/19 14:58:03;;;;;;;2.40;1.50;;;;;;;;;;5077327;28;20201;-82
2022/03/19 15:00:30;;;;;;;3.47;1.30;;;;;;;;;;5076373;28;20610;-81
2022/03/19 15:02:57;;;;;;;1.52;1.25;;;;;;;;;;5075947;28;20224;-81
2022/03/19 15:05:26;;;;;;;2.63;2.17;;;;;;;;;;5076523;28;20205;-81
2022/03/19 15:07:54;;;;;;;1.65;1.27;;;;;;;;;;5076463;28;20232;-81
2022/03/19 15:10:22;;;;;;;1.65;1.20;;;;;;;;;;5078459;28;20204;-80